
Distance (Route):
Temperature : 13.5°C
Humidity : 71.4%
Pressure : 0hPa| Receiver | Date | Latitude | Longitude | Direction | Speed | Altitude | Climb | Temperature | Humidity | Pressure | Voltage | Killtimer | Uptime | BKT | XDATA |
|---|---|---|---|---|---|---|---|---|---|---|---|---|---|---|---|
| LZ4TU-5 | 2026-09-01 13:02:51 | 42.59780 | 24.13730 | 112° | 11km/h | 2424m | -13.9m/s | 13.5°C | 71.4% | 0hPa | 0V | 00:00:00 | 00:00:00 | 00:00:00 | |
| LZ4TU-5 | 2026-09-01 13:02:38 | 42.59798 | 24.13692 | 125° | 18km/h | 2620m | -19.1m/s | 12.8°C | 58.0% | 0hPa | 0V | 08:18:00 | 00:00:00 | 00:00:00 | |
| LZ4TU-5 | 2026-09-01 13:02:34 | 42.59808 | 24.13670 | 118° | 20km/h | 2695m | -18.9m/s | 12.1°C | 59.7% | 0hPa | 0V | 08:18:00 | 00:00:00 | 00:00:00 | |
| LZ4TU-5 | 2026-09-01 13:02:30 | 42.59818 | 24.13649 | 132° | 18km/h | 2769m | -19.6m/s | 11.4°C | 61.3% | 0hPa | 0V | 08:18:00 | 00:00:00 | 00:00:00 | |
| LZ4TU-5 | 2026-09-01 13:02:25 | 42.59838 | 24.13628 | 158° | 24km/h | 2858m | -17.0m/s | 10.9°C | 59.5% | 0hPa | 0V | 08:18:00 | 00:00:00 | 00:00:00 | |
| LZ4TU-5 | 2026-09-01 13:02:21 | 42.59860 | 24.13614 | 126° | 22km/h | 2922m | -17.7m/s | 10.2°C | 62.1% | 0hPa | 0V | 08:18:00 | 00:00:00 | 00:00:00 | |
| LZ4TU-5 | 2026-09-01 13:02:16 | 42.59878 | 24.13575 | 129° | 22km/h | 3012m | -18.5m/s | 9.4°C | 64.6% | 0hPa | 0V | 08:18:00 | 00:00:00 | 00:00:00 | |
| LZ4TU-5 | 2026-09-01 13:02:11 | 42.59894 | 24.13542 | 121° | 22km/h | 3103m | -18.8m/s | 8.5°C | 66.3% | 0hPa | 0V | 08:18:00 | 00:00:00 | 00:00:00 | |
| LZ4TU-5 | 2026-09-01 13:02:07 | 42.59908 | 24.13516 | 129° | 26km/h | 3177m | -19.3m/s | 7.9°C | 68.0% | 0hPa | 0V | 08:18:00 | 00:00:00 | 00:00:00 | |
| LZ4TU-5 | 2026-09-01 13:02:03 | 42.59921 | 24.13484 | 116° | 24km/h | 3252m | -19.1m/s | 7.2°C | 73.6% | 0hPa | 0V | 08:18:00 | 00:00:00 | 00:00:00 | |
| LZ4TU-5 | 2026-09-01 13:01:58 | 42.59933 | 24.13454 | 122° | 24km/h | 3328m | -19.1m/s | 6.5°C | 77.3% | 0hPa | 0V | 08:18:00 | 00:00:00 | 00:00:00 | |
| LZ4TU-5 | 2026-09-01 13:01:54 | 42.59951 | 24.13416 | 126° | 26km/h | 3421m | -19.4m/s | 5.8°C | 69.9% | 0hPa | 0V | 08:19:00 | 00:00:00 | 00:00:00 | |
| LZ4TU-5 | 2026-09-01 13:01:50 | 42.59966 | 24.13383 | 118° | 26km/h | 3497m | -19.1m/s | 5.5°C | 56.0% | 0hPa | 0V | 08:19:00 | 00:00:00 | 00:00:00 | |
| LZ4TU-5 | 2026-09-01 13:01:46 | 42.59976 | 24.13354 | 115° | 22km/h | 3572m | -19.6m/s | 5.2°C | 39.1% | 0hPa | 0V | 08:19:00 | 00:00:00 | 00:00:00 | |
| LZ4TU-5 | 2026-09-01 13:01:42 | 42.59987 | 24.13324 | 117° | 27km/h | 3648m | -19.5m/s | 4.6°C | 40.3% | 0hPa | 0V | 08:19:00 | 00:00:00 | 00:00:00 | |
| LZ4TU-5 | 2026-09-01 13:01:38 | 42.59999 | 24.13291 | 121° | 26km/h | 3724m | -19.5m/s | 3.9°C | 41.4% | 0hPa | 0V | 08:19:00 | 00:00:00 | 00:00:00 | |
| LZ4TU-5 | 2026-09-01 13:01:33 | 42.60017 | 24.13250 | 121° | 27km/h | 3818m | -19.3m/s | 3.1°C | 41.3% | 0hPa | 0V | 08:19:00 | 00:00:00 | 00:00:00 | |
| LZ4TU-5 | 2026-09-01 13:01:29 | 42.60030 | 24.13220 | 123° | 27km/h | 3894m | -19.4m/s | 2.5°C | 36.1% | 0hPa | 0V | 08:19:00 | 00:00:00 | 00:00:00 | |
| LZ4TU-5 | 2026-09-01 13:01:24 | 42.60048 | 24.13179 | 121° | 31km/h | 3990m | -19.9m/s | 2.3°C | 0% | 0hPa | 0V | 08:19:00 | 00:00:00 | 00:00:00 | |
| LZ4TU-5 | 2026-09-01 13:01:20 | 42.60061 | 24.13146 | 119° | 29km/h | 4068m | -20.3m/s | 2.0°C | 0% | 0hPa | 0V | 08:19:00 | 00:00:00 | 00:00:00 | |
| LZ4TU-5 | 2026-09-01 13:01:15 | 42.60073 | 24.13098 | 103° | 31km/h | 4166m | -20.5m/s | 1.0°C | 0% | 0hPa | 0V | 08:19:00 | 00:00:00 | 00:00:00 | |
| LZ4TU-5 | 2026-09-01 13:01:10 | 42.60077 | 24.13056 | 96° | 29km/h | 4246m | -20.2m/s | 0.4°C | 0% | 0hPa | 0V | 08:19:00 | 00:00:00 | 00:00:00 | |
| LZ4TU-5 | 2026-09-01 13:01:06 | 42.60085 | 24.13001 | 103° | 33km/h | 4346m | -20.3m/s | -0.5°C | 0% | 0hPa | 0V | 08:19:00 | 00:00:00 | 00:00:00 | |
| LZ4TU-5 | 2026-09-01 13:01:01 | 42.60094 | 24.12943 | 107° | 37km/h | 4447m | -20.5m/s | -1.3°C | 0% | 0hPa | 0V | 00:00:00 | 00:00:00 | 00:00:00 | |
| LZ4TU-5 | 2026-09-01 13:00:56 | 42.60103 | 24.12899 | 105° | 33km/h | 4527m | -20.7m/s | -1.7°C | 0% | 0hPa | 0V | 00:00:00 | 00:00:00 | 00:00:00 | |
| LZ4TU-5 | 2026-09-01 13:00:51 | 42.60112 | 24.12847 | 103° | 27km/h | 4628m | -20.7m/s | -2.0°C | 0% | 0hPa | 0V | 00:00:00 | 00:00:00 | 00:00:00 | |
| LZ4TU-5 | 2026-09-01 12:59:23 | 42.60403 | 24.12066 | 113° | 33km/h | 6352m | -20.3m/s | -11.2°C | 0% | 0hPa | 0V | 08:20:00 | 00:00:00 | 00:00:00 | |
| LZ4TU-5 | 2026-09-01 12:59:19 | 42.60417 | 24.12024 | 115° | 33km/h | 6432m | -20.4m/s | -11.6°C | 0% | 0hPa | 0V | 00:00:00 | 00:00:00 | 00:00:00 | |
| LZ3DJ-16 | 2026-09-01 12:53:22 | 42.61461 | 24.02213 | 93° | 46km/h | 16490m | -40.4m/s | -61.8°C | 2.8% | 0hPa | 0V | 08:27:00 | 00:00:00 | 00:00:00 | |
| LZ3DJ-16 | 2026-09-01 12:53:01 | 42.61433 | 24.01975 | 85° | 18km/h | 17365m | -44.4m/s | -57.1°C | 1.9% | 0hPa | 0V | 08:27:00 | 00:00:00 | 00:00:00 | |
| LZ3DJ-16 | 2026-09-01 12:52:41 | 42.61391 | 24.01838 | 59° | 29km/h | 18248m | -47.4m/s | -58.9°C | 2.2% | 0hPa | 0V | 08:27:00 | 00:00:00 | 00:00:00 | |
| LZ3DJ-16 | 2026-09-01 12:52:21 | 42.61317 | 24.01699 | 40° | 11km/h | 19254m | -48.1m/s | -56.1°C | 1.7% | 0hPa | 0V | 08:28:00 | 00:00:00 | 00:00:00 | |
| LZ3DJ-16 | 2026-09-01 12:52:00 | 42.61260 | 24.01567 | 63° | 15km/h | 20252m | -48.3m/s | -55.5°C | 1.7% | 0hPa | 0V | 08:28:00 | 00:00:00 | 00:00:00 | |
| LZ3DJ-16 | 2026-09-01 12:51:40 | 42.61230 | 24.01488 | 137° | 4km/h | 21246m | -50.7m/s | -54.0°C | 1.6% | 0hPa | 0V | 08:29:00 | 00:00:00 | 00:00:00 | |
| LZ4TU-5 | 2026-09-01 12:51:28 | 42.61230 | 24.01502 | 305° | 9km/h | 21836m | -54.5m/s | -54.1°C | 0% | 0hPa | 0V | 00:00:00 | 00:00:00 | 00:00:00 | |
| LZ3DJ-16 | 2026-09-01 12:51:19 | 42.61207 | 24.01535 | 318° | 15km/h | 22382m | -55.0m/s | -53.3°C | 1.6% | 0hPa | 0V | 08:29:00 | 00:00:00 | 00:00:00 | |
| LZ3DJ-16 | 2026-09-01 12:50:58 | 42.61151 | 24.01542 | 243° | 4km/h | 23594m | -60.2m/s | -50.5°C | 1.3% | 0hPa | 0V | 08:29:00 | 00:00:00 | 00:00:00 | |
| LZ3DJ-16 | 2026-09-01 12:50:37 | 42.61121 | 24.01542 | 54° | 5km/h | 24920m | -67.0m/s | -50.2°C | 1.4% | 0hPa | 0V | 00:00:00 | 00:00:00 | 00:00:00 | |
| LZ3DJ-16 | 2026-09-01 12:50:17 | 42.61151 | 24.01533 | 203° | 16km/h | 26298m | -71.2m/s | -46.3°C | 1.0% | 0hPa | 0V | 00:00:00 | 00:00:00 | 00:00:00 | |
| LZ3DJ-16 | 2026-09-01 12:49:57 | 42.61171 | 24.01646 | 308° | 22km/h | 27560m | -38.1m/s | -46.9°C | 1.0% | 0hPa | 0V | 00:00:00 | 00:00:00 | 00:00:00 | |
| LZ3DJ-16 | 2026-09-01 12:49:36 | 42.61096 | 24.01793 | 300° | 31km/h | 27549m | 6.5m/s | -46.8°C | 1.0% | 0hPa | 0V | 00:00:00 | 00:00:00 | 00:00:00 | |
| LZ4TU-5 | 2026-09-01 12:49:25 | 42.61078 | 24.01886 | 297° | 22km/h | 27477m | 6.8m/s | -46.6°C | 0% | 0hPa | 0V | 00:00:00 | 00:00:00 | 00:00:00 | |
| LZ4TU-5 | 2026-09-01 12:49:21 | 42.61069 | 24.01923 | 286° | 29km/h | 27450m | 7.9m/s | -46.6°C | 0% | 0hPa | 0V | 00:00:00 | 00:00:00 | 00:00:00 | |
| LZ3DJ-16 | 2026-09-01 12:49:15 | 42.61077 | 24.01980 | 251° | 26km/h | 27411m | 8.5m/s | -46.4°C | 1.0% | 0hPa | 0V | 00:00:00 | 00:00:00 | 00:00:00 | |
| LZ3DJ-16 | 2026-09-01 12:48:55 | 42.61134 | 24.02141 | 242° | 22km/h | 27278m | 6.0m/s | -46.6°C | 1.0% | 0hPa | 0V | 00:00:00 | 00:00:00 | 00:00:00 | |
| LZ3DJ-16 | 2026-09-01 12:48:34 | 42.61208 | 24.02277 | 203° | 31km/h | 27150m | 6.8m/s | -46.3°C | 1.0% | 0hPa | 0V | 00:00:00 | 00:00:00 | 00:00:00 | |
| LZ3DJ-16 | 2026-09-01 12:48:14 | 42.61273 | 24.02411 | 227° | 33km/h | 27024m | 4.6m/s | -46.1°C | 1.0% | 0hPa | 0V | 00:00:00 | 00:00:00 | 00:00:00 | |
| LZ3DJ-16 | 2026-09-01 12:47:54 | 42.61413 | 24.02515 | 199° | 27km/h | 26893m | 4.9m/s | -46.0°C | 1.0% | 0hPa | 0V | 00:00:00 | 00:00:00 | 00:00:00 | |
| LZ3DJ-16 | 2026-09-01 12:47:33 | 42.61573 | 24.02612 | 198° | 27km/h | 26768m | 4.5m/s | -45.8°C | 1.0% | 0hPa | 0V | 00:00:00 | 00:00:00 | 00:00:00 | |
| LZ3DJ-16 | 2026-09-01 12:47:12 | 42.61681 | 24.02671 | 205° | 11km/h | 26642m | 5.2m/s | -46.5°C | 1.0% | 0hPa | 0V | 00:00:00 | 00:00:00 | 00:00:00 | |
| LZ4TU-5 | 2026-09-01 12:47:05 | 42.61703 | 24.02666 | 170° | 22km/h | 26607m | 5.1m/s | -46.9°C | 0% | 0hPa | 0V | 00:00:00 | 00:00:00 | 00:00:00 | |
| LZ4TU-5 | 2026-09-01 12:47:01 | 42.61738 | 24.02669 | 197° | 26km/h | 26577m | 6.4m/s | -47.3°C | 0% | 0hPa | 0V | 00:00:00 | 00:00:00 | 00:00:00 | |
| LZ3DJ-16 | 2026-09-01 12:46:52 | 42.61775 | 24.02643 | 157° | 27km/h | 26524m | 6.5m/s | -47.8°C | 1.1% | 0hPa | 0V | 00:00:00 | 00:00:00 | 00:00:00 | |
| LZ3DJ-16 | 2026-09-01 12:46:32 | 42.61839 | 24.02590 | 176° | 16km/h | 26405m | 6.9m/s | -48.3°C | 1.1% | 0hPa | 0V | 00:00:00 | 00:00:00 | 00:00:00 | |
| LZ3DJ-16 | 2026-09-01 12:46:11 | 42.61892 | 24.02562 | 132° | 5km/h | 26281m | 6.3m/s | -48.2°C | 1.1% | 0hPa | 0V | 00:00:00 | 00:00:00 | 00:00:00 | |
| LZ3DJ-16 | 2026-09-01 12:45:50 | 42.61944 | 24.02519 | 173° | 15km/h | 26161m | 5.4m/s | -48.5°C | 1.1% | 0hPa | 0V | 00:00:00 | 00:00:00 | 00:00:00 | |
| LZ3DJ-16 | 2026-09-01 12:45:29 | 42.61951 | 24.02471 | 27° | 9km/h | 26033m | 5.8m/s | -49.3°C | 1.2% | 0hPa | 0V | 00:00:00 | 00:00:00 | 00:00:00 | |
| LZ3DJ-16 | 2026-09-01 12:45:09 | 42.61910 | 24.02486 | 323° | 15km/h | 25903m | 5.9m/s | -49.5°C | 1.1% | 0hPa | 0V | 00:00:00 | 00:00:00 | 00:00:00 | |
| LZ4TU-5 | 2026-09-01 12:44:59 | 42.61886 | 24.02527 | 293° | 18km/h | 25840m | 7.4m/s | -49.4°C | 0% | 0hPa | 0V | 00:00:00 | 00:00:00 | 00:00:00 | |
| LZ4TU-5 | 2026-09-01 12:44:54 | 42.61876 | 24.02556 | 294° | 16km/h | 25808m | 5.6m/s | -49.6°C | 0% | 0hPa | 0V | 00:00:00 | 00:00:00 | 00:00:00 | |
| LZ3DJ-16 | 2026-09-01 12:44:48 | 42.61868 | 24.02577 | 295° | 18km/h | 25775m | 6.0m/s | -49.7°C | 1.1% | 0hPa | 0V | 00:00:00 | 00:00:00 | 00:00:00 | |
| LZ3DJ-16 | 2026-09-01 12:44:28 | 42.61877 | 24.02674 | 203° | 13km/h | 25645m | 4.7m/s | -50.4°C | 1.2% | 0hPa | 0V | 00:00:00 | 00:00:00 | 00:00:00 | |
| LZ3DJ-16 | 2026-09-01 12:44:07 | 42.61919 | 24.02644 | 96° | 16km/h | 25509m | 6.8m/s | -50.3°C | 1.2% | 0hPa | 0V | 00:00:00 | 00:00:00 | 00:00:00 | |
| LZ3DJ-16 | 2026-09-01 12:43:46 | 42.61928 | 24.02521 | 75° | 24km/h | 25373m | 6.1m/s | -51.0°C | 1.2% | 0hPa | 0V | 00:00:00 | 00:00:00 | 00:00:00 | |
| LZ3DJ-16 | 2026-09-01 12:43:25 | 42.61873 | 24.02397 | 45° | 22km/h | 25239m | 5.0m/s | -51.0°C | 1.2% | 0hPa | 0V | 00:00:00 | 00:00:00 | 00:00:00 | |
| LZ3DJ-16 | 2026-09-01 12:43:04 | 42.61800 | 24.02329 | 20° | 18km/h | 25110m | 5.3m/s | -50.9°C | 1.2% | 0hPa | 0V | 00:00:00 | 00:00:00 | 00:00:00 | |
| LZ3DJ-16 | 2026-09-01 12:42:44 | 42.61710 | 24.02268 | 22° | 20km/h | 24984m | 7.1m/s | -51.6°C | 1.2% | 0hPa | 0V | 00:00:00 | 00:00:00 | 00:00:00 | |
| LZ3DJ-16 | 2026-09-01 12:42:24 | 42.61622 | 24.02197 | 2° | 27km/h | 24856m | 8.1m/s | -52.2°C | 1.3% | 0hPa | 0V | 00:00:00 | 00:00:00 | 00:00:00 | |
| LZ4TU-5 | 2026-09-01 12:42:10 | 42.61532 | 24.02184 | 6° | 20km/h | 24773m | 7.1m/s | -52.3°C | 0% | 0hPa | 0V | 00:00:00 | 00:00:00 | 00:00:00 | |
| LZ4TU-5 | 2026-09-01 12:42:05 | 42.61507 | 24.02184 | 349° | 20km/h | 24744m | 5.8m/s | -52.2°C | 0% | 0hPa | 0V | 00:00:00 | 00:00:00 | 00:00:00 | |
| LZ3DJ-16 | 2026-09-01 12:42:03 | 42.61497 | 24.02186 | 6° | 20km/h | 24731m | 5.6m/s | -52.2°C | 1.3% | 0hPa | 0V | 00:00:00 | 00:00:00 | 00:00:00 | |
| LZ4TU-5 | 2026-09-01 12:42:01 | 42.61482 | 24.02182 | 12° | 20km/h | 24712m | 5.3m/s | -52.2°C | 0% | 0hPa | 0V | 00:00:00 | 00:00:00 | 00:00:00 | |
| LZ3DJ-16 | 2026-09-01 12:41:42 | 42.61421 | 24.02168 | 32° | 20km/h | 24609m | 5.5m/s | -51.7°C | 1.3% | 0hPa | 0V | 00:00:00 | 00:00:00 | 00:00:00 | |
| LZ3DJ-16 | 2026-09-01 12:41:22 | 42.61354 | 24.02138 | 356° | 16km/h | 24480m | 5.8m/s | -51.5°C | 1.3% | 0hPa | 0V | 00:00:00 | 00:00:00 | 00:00:00 | |
| LZ3DJ-16 | 2026-09-01 12:41:01 | 42.61274 | 24.02147 | 324° | 15km/h | 24348m | 5.5m/s | -51.8°C | 1.3% | 0hPa | 0V | 00:00:00 | 00:00:00 | 00:00:00 | |
| LZ3DJ-16 | 2026-09-01 12:40:41 | 42.61237 | 24.02188 | 307° | 9km/h | 24217m | 7.4m/s | -51.5°C | 1.3% | 0hPa | 0V | 00:00:00 | 00:00:00 | 00:00:00 | |
| LZ3DJ-16 | 2026-09-01 12:40:20 | 42.61234 | 24.02243 | 242° | 9km/h | 24089m | 5.3m/s | -51.6°C | 1.3% | 0hPa | 0V | 00:00:00 | 00:00:00 | 00:00:00 | |
| LZ3DJ-16 | 2026-09-01 12:40:00 | 42.61242 | 24.02267 | 211° | 5km/h | 23958m | 7.2m/s | -51.3°C | 1.3% | 0hPa | 0V | 00:00:00 | 00:00:00 | 00:00:00 | |
| LZ4TU-5 | 2026-09-01 12:39:54 | 42.61247 | 24.02286 | 268° | 5km/h | 23921m | 6.2m/s | -51.3°C | 0% | 0hPa | 0V | 00:00:00 | 00:00:00 | 00:00:00 | |
| LZ4TU-5 | 2026-09-01 12:39:49 | 42.61245 | 24.02287 | 81° | 5km/h | 23896m | 8.9m/s | -51.4°C | 0% | 0hPa | 0V | 00:00:00 | 00:00:00 | 00:00:00 | |
| LZ3DJ-16 | 2026-09-01 12:39:39 | 42.61248 | 24.02276 | 47° | 7km/h | 23830m | 3.9m/s | -51.6°C | 1.3% | 0hPa | 0V | 00:00:00 | 00:00:00 | 00:00:00 | |
| LZ3DJ-16 | 2026-09-01 12:39:19 | 42.61250 | 24.02227 | 62° | 9km/h | 23700m | 4.1m/s | -51.7°C | 1.3% | 0hPa | 0V | 00:00:00 | 00:00:00 | 00:00:00 | |
| LZ3DJ-16 | 2026-09-01 12:38:58 | 42.61243 | 24.02214 | 345° | 5km/h | 23571m | 6.2m/s | -51.8°C | 1.3% | 0hPa | 0V | 00:00:00 | 00:00:00 | 00:00:00 | |
| LZ3DJ-16 | 2026-09-01 12:38:36 | 42.61210 | 24.02142 | 37° | 18km/h | 23445m | 5.4m/s | -52.3°C | 1.3% | 0hPa | 0V | 00:00:00 | 00:00:00 | 00:00:00 | |
| LZ3DJ-16 | 2026-09-01 12:38:17 | 42.61133 | 24.02073 | 23° | 16km/h | 23325m | 6.2m/s | -52.6°C | 1.4% | 0hPa | 0V | 00:00:00 | 00:00:00 | 00:00:00 | |
| LZ3DJ-16 | 2026-09-01 12:37:56 | 42.61059 | 24.02095 | 326° | 9km/h | 23197m | 4.0m/s | -52.4°C | 1.3% | 0hPa | 0V | 00:00:00 | 00:00:00 | 00:00:00 | |
| LZ4TU-5 | 2026-09-01 12:37:44 | 42.61016 | 24.02118 | 97° | 4km/h | 23125m | 4.9m/s | -52.6°C | 0% | 0hPa | 0V | 00:00:00 | 00:00:00 | 00:00:00 | |
| LZ4TU-5 | 2026-09-01 12:37:39 | 42.61014 | 24.02116 | 21° | 9km/h | 23096m | 5.1m/s | -52.4°C | 0% | 0hPa | 0V | 00:00:00 | 00:00:00 | 00:00:00 | |
| LZ3DJ-16 | 2026-09-01 12:37:35 | 42.61005 | 24.02112 | 32° | 13km/h | 23072m | 8.0m/s | -52.5°C | 1.3% | 0hPa | 0V | 00:00:00 | 00:00:00 | 00:00:00 | |
| LZ3DJ-16 | 2026-09-01 12:37:14 | 42.60938 | 24.02057 | 17° | 16km/h | 22948m | 5.7m/s | -53.1°C | 1.4% | 0hPa | 0V | 00:00:00 | 00:00:00 | 00:00:00 | |
| LZ3DJ-16 | 2026-09-01 12:36:54 | 42.60871 | 24.02052 | 316° | 11km/h | 22825m | 7.1m/s | -53.1°C | 1.4% | 0hPa | 0V | 00:00:00 | 00:00:00 | 00:00:00 | |
| LZ3DJ-16 | 2026-09-01 12:36:34 | 42.60837 | 24.02111 | 318° | 11km/h | 22697m | 6.5m/s | -53.5°C | 1.4% | 0hPa | 0V | 00:00:00 | 00:00:00 | 00:00:00 | |
| LZ3DJ-16 | 2026-09-01 12:36:13 | 42.60802 | 24.02197 | 286° | 11km/h | 22562m | 5.8m/s | -53.2°C | 1.4% | 0hPa | 0V | 00:00:00 | 00:00:00 | 00:00:00 | |
| LZ3DJ-16 | 2026-09-01 12:35:53 | 42.60778 | 24.02249 | 321° | 7km/h | 22436m | 5.7m/s | -53.4°C | 1.4% | 0hPa | 0V | 00:00:00 | 00:00:00 | 00:00:00 | |
| LZ4TU-5 | 2026-09-01 12:35:40 | 42.60774 | 24.02283 | 251° | 9km/h | 22354m | 6.3m/s | -53.9°C | 0% | 0hPa | 0V | 00:00:00 | 00:00:00 | 00:00:00 | |
| LZ4TU-5 | 2026-09-01 12:35:36 | 42.60774 | 24.02296 | 291° | 16km/h | 22329m | 5.1m/s | -54.2°C | 0% | 0hPa | 0V | 00:00:00 | 00:00:00 | 00:00:00 | |
| LZ3DJ-16 | 2026-09-01 12:35:32 | 42.60768 | 24.02312 | 303° | 16km/h | 22310m | 5.2m/s | -54.3°C | 1.5% | 0hPa | 0V | 00:00:00 | 00:00:00 | 00:00:00 | |
| LZ3DJ-16 | 2026-09-01 12:35:11 | 42.60734 | 24.02422 | 287° | 11km/h | 22175m | 5.8m/s | -54.5°C | 1.5% | 0hPa | 0V | 00:00:00 | 00:00:00 | 00:00:00 | |
| LZ3DJ-16 | 2026-09-01 12:34:51 | 42.60755 | 24.02464 | 278° | 5km/h | 22044m | 6.2m/s | -54.5°C | 1.5% | 0hPa | 0V | 00:00:00 | 00:00:00 | 00:00:00 | |
| LZ3DJ-16 | 2026-09-01 12:34:30 | 42.60761 | 24.02479 | 0° | 0km/h | 21913m | 4.7m/s | -54.7°C | 1.5% | 0hPa | 0V | 00:00:00 | 00:00:00 | 00:00:00 | |
| LZ3DJ-16 | 2026-09-01 12:34:09 | 42.60747 | 24.02457 | 81° | 4km/h | 21783m | 7.6m/s | -54.6°C | 1.5% | 0hPa | 0V | 00:00:00 | 00:00:00 | 00:00:00 | |
| LZ3DJ-16 | 2026-09-01 12:33:49 | 42.60775 | 24.02476 | 0° | 0km/h | 21657m | 4.0m/s | -54.8°C | 1.5% | 0hPa | 0V | 00:00:00 | 00:00:00 | 00:00:00 | |
| LZ4TU-5 | 2026-09-01 12:33:44 | 42.60780 | 24.02477 | 183° | 5km/h | 21626m | 4.6m/s | -54.7°C | 0% | 0hPa | 0V | 00:00:00 | 00:00:00 | 00:00:00 | |
| LZ4TU-5 | 2026-09-01 12:33:39 | 42.60792 | 24.02479 | 190° | 9km/h | 21595m | 5.6m/s | -54.6°C | 0% | 0hPa | 0V | 00:00:00 | 00:00:00 | 00:00:00 | |
| LZ3DJ-16 | 2026-09-01 12:33:29 | 42.60818 | 24.02469 | 178° | 15km/h | 21532m | 6.4m/s | -54.4°C | 1.6% | 0hPa | 0V | 00:00:00 | 00:00:00 | 00:00:00 | |
| LZ3DJ-16 | 2026-09-01 12:33:09 | 42.60880 | 24.02462 | 172° | 13km/h | 21404m | 5.3m/s | -53.9°C | 1.4% | 0hPa | 0V | 00:00:00 | 00:00:00 | 00:00:00 | |
| LZ3DJ-16 | 2026-09-01 12:32:48 | 42.60901 | 24.02419 | 72° | 9km/h | 21271m | 5.3m/s | -54.3°C | 1.5% | 0hPa | 0V | 00:00:00 | 00:00:00 | 00:00:00 | |
| LZ3DJ-16 | 2026-09-01 12:32:27 | 42.60901 | 24.02353 | 143° | 11km/h | 21139m | 5.8m/s | -54.9°C | 1.5% | 0hPa | 0V | 00:00:00 | 00:00:00 | 00:00:00 | |
| LZ3DJ-16 | 2026-09-01 12:32:06 | 42.60926 | 24.02230 | 99° | 20km/h | 21008m | 5.3m/s | -55.4°C | 1.6% | 0hPa | 0V | 00:00:00 | 00:00:00 | 00:00:00 | |
| LZ3DJ-16 | 2026-09-01 12:31:46 | 42.60907 | 24.02057 | 71° | 26km/h | 20884m | 6.0m/s | -55.5°C | 1.5% | 0hPa | 0V | 00:00:00 | 00:00:00 | 00:00:00 | |
| LZ4TU-5 | 2026-09-01 12:31:45 | 42.60905 | 24.02049 | 73° | 22km/h | 20877m | 7.8m/s | -55.4°C | 0% | 0hPa | 0V | 00:00:00 | 00:00:00 | 00:00:00 | |
| LZ4TU-5 | 2026-09-01 12:31:40 | 42.60893 | 24.02018 | 56° | 24km/h | 20846m | 4.5m/s | -55.7°C | 0% | 0hPa | 0V | 00:00:00 | 00:00:00 | 00:00:00 | |
| LZ3DJ-16 | 2026-09-01 12:31:26 | 42.60818 | 24.01929 | 31° | 31km/h | 20757m | 7.7m/s | -56.7°C | 1.7% | 0hPa | 0V | 00:00:00 | 00:00:00 | 00:00:00 | |
| LZ3DJ-16 | 2026-09-01 12:31:05 | 42.60692 | 24.01845 | 23° | 22km/h | 20631m | 4.8m/s | -56.1°C | 1.6% | 0hPa | 0V | 00:00:00 | 00:00:00 | 00:00:00 | |
| LZ3DJ-16 | 2026-09-01 12:30:44 | 42.60626 | 24.01810 | 28° | 13km/h | 20504m | 4.0m/s | -55.8°C | 1.6% | 0hPa | 0V | 00:00:00 | 00:00:00 | 00:00:00 | |
| LZ3DJ-16 | 2026-09-01 12:30:24 | 42.60596 | 24.01723 | 39° | 13km/h | 20387m | 6.4m/s | -56.1°C | 1.7% | 0hPa | 0V | 00:00:00 | 00:00:00 | 00:00:00 | |
| LZ3DJ-16 | 2026-09-01 12:30:03 | 42.60531 | 24.01704 | 66° | 13km/h | 20263m | 5.5m/s | -55.9°C | 1.6% | 0hPa | 0V | 00:00:00 | 00:00:00 | 00:00:00 | |
| LZ4TU-5 | 2026-09-01 12:29:46 | 42.60514 | 24.01639 | 82° | 16km/h | 20159m | 5.8m/s | -56.2°C | 0% | 0hPa | 0V | 00:00:00 | 00:00:00 | 00:00:00 | |
| LZ3DJ-16 | 2026-09-01 12:29:42 | 42.60514 | 24.01626 | 85° | 9km/h | 20140m | 7.7m/s | -56.3°C | 1.6% | 0hPa | 0V | 00:00:00 | 00:00:00 | 00:00:00 | |
| LZ4TU-5 | 2026-09-01 12:29:41 | 42.60514 | 24.01621 | 99° | 7km/h | 20130m | 5.3m/s | -56.3°C | 0% | 0hPa | 0V | 00:00:00 | 00:00:00 | 00:00:00 | |
| LZ3DJ-16 | 2026-09-01 12:29:22 | 42.60514 | 24.01504 | 80° | 27km/h | 20021m | 4.0m/s | -56.5°C | 1.6% | 0hPa | 0V | 00:00:00 | 00:00:00 | 00:00:00 | |
| LZ3DJ-16 | 2026-09-01 12:29:01 | 42.60469 | 24.01254 | 62° | 47km/h | 19902m | 6.8m/s | -57.4°C | 1.7% | 0hPa | 0V | 00:00:00 | 00:00:00 | 00:00:00 | |
| LZ3DJ-16 | 2026-09-01 12:28:41 | 42.60371 | 24.01051 | 46° | 29km/h | 19789m | 6.6m/s | -57.8°C | 1.8% | 0hPa | 0V | 00:00:00 | 00:00:00 | 00:00:00 | |
| LZ3DJ-16 | 2026-09-01 12:28:21 | 42.60252 | 24.00917 | 28° | 35km/h | 19677m | 6.6m/s | -57.9°C | 1.8% | 0hPa | 0V | 00:00:00 | 00:00:00 | 00:00:00 | |
| LZ3DJ-16 | 2026-09-01 12:28:00 | 42.60102 | 24.00836 | 39° | 18km/h | 19555m | 6.4m/s | -57.8°C | 1.8% | 0hPa | 0V | 00:00:00 | 00:00:00 | 00:00:00 | |
| LZ4TU-5 | 2026-09-01 12:27:47 | 42.60028 | 24.00806 | 25° | 20km/h | 19476m | 7.5m/s | -57.5°C | 0% | 0hPa | 0V | 00:00:00 | 00:00:00 | 00:00:00 | |
| LZ4TU-5 | 2026-09-01 12:27:42 | 42.60008 | 24.00795 | 17° | 16km/h | 19446m | 6.0m/s | -57.3°C | 0% | 0hPa | 0V | 00:00:00 | 00:00:00 | 00:00:00 | |
| LZ3DJ-16 | 2026-09-01 12:27:39 | 42.59997 | 24.00791 | 7° | 16km/h | 19427m | 4.9m/s | -57.2°C | 1.8% | 0hPa | 0V | 00:00:00 | 00:00:00 | 00:00:00 | |
| LZ3DJ-16 | 2026-09-01 12:27:18 | 42.59924 | 24.00762 | 19° | 16km/h | 19309m | 7.5m/s | -56.9°C | 1.8% | 0hPa | 0V | 00:00:00 | 00:00:00 | 00:00:00 | |
| LZ3DJ-16 | 2026-09-01 12:26:59 | 42.59891 | 24.00706 | 102° | 11km/h | 19191m | 6.8m/s | -56.1°C | 1.6% | 0hPa | 0V | 00:00:00 | 00:00:00 | 00:00:00 | |
| LZ3DJ-16 | 2026-09-01 12:26:38 | 42.59856 | 24.00589 | 74° | 26km/h | 19069m | 4.6m/s | -56.6°C | 1.7% | 0hPa | 0V | 00:00:00 | 00:00:00 | 00:00:00 | |
| LZ3DJ-16 | 2026-09-01 12:26:18 | 42.59810 | 24.00392 | 65° | 40km/h | 18953m | 7.8m/s | -57.8°C | 1.9% | 0hPa | 0V | 00:00:00 | 00:00:00 | 00:00:00 | |
| LZ3DJ-16 | 2026-09-01 12:25:57 | 42.59725 | 24.00163 | 62° | 31km/h | 18828m | 5.0m/s | -57.2°C | 1.8% | 0hPa | 0V | 00:00:00 | 00:00:00 | 00:00:00 | |
| LZ4TU-5 | 2026-09-01 12:25:50 | 42.59695 | 24.00103 | 50° | 29km/h | 18786m | 5.4m/s | -57.8°C | 0% | 0hPa | 0V | 00:00:00 | 00:00:00 | 00:00:00 | |
| LZ4TU-5 | 2026-09-01 12:25:46 | 42.59676 | 24.00072 | 46° | 31km/h | 18762m | 4.8m/s | -57.8°C | 0% | 0hPa | 0V | 00:00:00 | 00:00:00 | 00:00:00 | |
| LZ3DJ-16 | 2026-09-01 12:25:37 | 42.59621 | 24.00015 | 26° | 29km/h | 18707m | 5.4m/s | -58.2°C | 1.9% | 0hPa | 0V | 00:00:00 | 00:00:00 | 00:00:00 | |
| LZ3DJ-16 | 2026-09-01 12:25:17 | 42.59504 | 23.99862 | 51° | 44km/h | 18588m | 6.7m/s | -59.0°C | 2.1% | 0hPa | 0V | 00:00:00 | 00:00:00 | 00:00:00 | |
| LZ3DJ-16 | 2026-09-01 12:24:57 | 42.59378 | 23.99684 | 47° | 29km/h | 18472m | 7.2m/s | -59.3°C | 2.1% | 0hPa | 0V | 00:00:00 | 00:00:00 | 00:00:00 | |
| LZ3DJ-16 | 2026-09-01 12:24:37 | 42.59293 | 23.99545 | 52° | 24km/h | 18352m | 5.2m/s | -59.8°C | 2.2% | 0hPa | 0V | 00:00:00 | 00:00:00 | 00:00:00 | |
| LZ3DJ-16 | 2026-09-01 12:24:15 | 42.59234 | 23.99408 | 73° | 20km/h | 18230m | 5.5m/s | -60.2°C | 2.3% | 0hPa | 0V | 00:00:00 | 00:00:00 | 00:00:00 | |
| LZ3DJ-16 | 2026-09-01 12:23:56 | 42.59193 | 23.99282 | 64° | 16km/h | 18114m | 7.6m/s | -60.3°C | 2.3% | 0hPa | 0V | 00:00:00 | 00:00:00 | 00:00:00 | |
| LZ4TU-5 | 2026-09-01 12:23:53 | 42.59188 | 23.99271 | 51° | 9km/h | 18097m | 5.2m/s | -60.4°C | 0% | 0hPa | 0V | 00:00:00 | 00:00:00 | 00:00:00 | |
| LZ4TU-5 | 2026-09-01 12:23:48 | 42.59183 | 23.99255 | 78° | 15km/h | 18070m | 6.5m/s | -60.6°C | 0% | 0hPa | 0V | 00:00:00 | 00:00:00 | 00:00:00 | |
| LZ3DJ-16 | 2026-09-01 12:23:36 | 42.59182 | 23.99188 | 91° | 18km/h | 18001m | 7.6m/s | -60.2°C | 2.3% | 0hPa | 0V | 00:00:00 | 00:00:00 | 00:00:00 | |
| LZ3DJ-16 | 2026-09-01 12:23:15 | 42.59171 | 23.99068 | 89° | 24km/h | 17885m | 5.2m/s | -60.2°C | 2.3% | 0hPa | 0V | 00:00:00 | 00:00:00 | 00:00:00 | |
| LZ3DJ-16 | 2026-09-01 12:22:55 | 42.59126 | 23.98931 | 42° | 22km/h | 17764m | 7.2m/s | -59.4°C | 2.2% | 0hPa | 0V | 00:00:00 | 00:00:00 | 00:00:00 | |
| LZ3DJ-16 | 2026-09-01 12:22:34 | 42.59068 | 23.98840 | 74° | 16km/h | 17640m | 8.1m/s | -58.3°C | 2.1% | 0hPa | 0V | 00:00:00 | 00:00:00 | 00:00:00 | |
| LZ3DJ-16 | 2026-09-01 12:22:14 | 42.59021 | 23.98743 | 46° | 18km/h | 17531m | 5.0m/s | -57.2°C | 2.0% | 0hPa | 0V | 00:00:00 | 00:00:00 | 00:00:00 | |
| LZ4TU-5 | 2026-09-01 12:21:58 | 42.59005 | 23.98685 | 0° | 0km/h | 17435m | 5.0m/s | -56.9°C | 0% | 0hPa | 0V | 00:00:00 | 00:00:00 | 00:00:00 | |
| LZ3DJ-16 | 2026-09-01 12:21:53 | 42.59007 | 23.98674 | 102° | 15km/h | 17407m | 6.9m/s | -56.8°C | 2.0% | 0hPa | 0V | 00:00:00 | 00:00:00 | 00:00:00 | |
| LZ3DJ-16 | 2026-09-01 12:21:32 | 42.59036 | 23.98535 | 103° | 22km/h | 17282m | 6.5m/s | -56.4°C | 2.0% | 0hPa | 0V | 00:00:00 | 00:00:00 | 00:00:00 | |
| LZ3DJ-16 | 2026-09-01 12:21:11 | 42.59072 | 23.98363 | 102° | 33km/h | 17176m | 7.2m/s | -56.9°C | 2.0% | 0hPa | 0V | 00:00:00 | 00:00:00 | 00:00:00 | |
| LZ3DJ-16 | 2026-09-01 12:20:52 | 42.59065 | 23.98090 | 76° | 44km/h | 17066m | 6.8m/s | -56.8°C | 2.0% | 0hPa | 0V | 00:00:00 | 00:00:00 | 00:00:00 | |
| LZ3DJ-16 | 2026-09-01 12:20:32 | 42.59002 | 23.97849 | 74° | 27km/h | 16952m | 5.2m/s | -58.8°C | 2.4% | 0hPa | 0V | 00:00:00 | 00:00:00 | 00:00:00 | |
| LZ3DJ-16 | 2026-09-01 12:20:11 | 42.58943 | 23.97574 | 82° | 38km/h | 16831m | 5.9m/s | -61.2°C | 2.9% | 0hPa | 0V | 00:00:00 | 00:00:00 | 00:00:00 | |
| LZ4TU-5 | 2026-09-01 12:20:01 | 42.58928 | 23.97414 | 78° | 53km/h | 16772m | 5.0m/s | -61.7°C | 0% | 0hPa | 0V | 00:00:00 | 00:00:00 | 00:00:00 | |
| LZ4TU-5 | 2026-09-01 12:19:56 | 42.58915 | 23.97335 | 80° | 44km/h | 16744m | 8.8m/s | -61.6°C | 0% | 0hPa | 0V | 00:00:00 | 00:00:00 | 00:00:00 | |
| LZ3DJ-16 | 2026-09-01 12:19:50 | 42.58906 | 23.97253 | 82° | 53km/h | 16713m | 5.0m/s | -61.3°C | 3.1% | 0hPa | 0V | 00:00:00 | 00:00:00 | 00:00:00 | |
| LZ3DJ-16 | 2026-09-01 12:19:30 | 42.58882 | 23.96936 | 102° | 47km/h | 16591m | 6.1m/s | -62.1°C | 3.3% | 0hPa | 0V | 00:00:00 | 00:00:00 | 00:00:00 | |
| LZ3DJ-16 | 2026-09-01 12:19:09 | 42.58910 | 23.96539 | 97° | 64km/h | 16476m | 5.1m/s | -62.4°C | 3.4% | 0hPa | 0V | 00:00:00 | 00:00:00 | 00:00:00 | |
| LZ3DJ-16 | 2026-09-01 12:18:48 | 42.58927 | 23.96064 | 91° | 64km/h | 16359m | 5.7m/s | -62.1°C | 3.5% | 0hPa | 0V | 00:00:00 | 00:00:00 | 00:00:00 | |
| LZ3DJ-16 | 2026-09-01 12:18:07 | 42.58823 | 23.95061 | 78° | 75km/h | 16140m | 5.5m/s | -61.2°C | 3.7% | 0hPa | 0V | 00:00:00 | 00:00:00 | 00:00:00 | |
| LZ4TU-5 | 2026-09-01 12:17:57 | 42.58771 | 23.94818 | 68° | 78km/h | 16085m | 6.1m/s | -61.6°C | 0% | 0hPa | 0V | 00:00:00 | 00:00:00 | 00:00:00 | |
| LZ4TU-5 | 2026-09-01 12:17:52 | 42.58727 | 23.94690 | 65° | 80km/h | 16060m | 4.7m/s | -61.8°C | 0% | 0hPa | 0V | 00:00:00 | 00:00:00 | 00:00:00 | |
| LZ3DJ-16 | 2026-09-01 12:17:46 | 42.58681 | 23.94544 | 70° | 75km/h | 16029m | 5.4m/s | -62.1°C | 4.3% | 0hPa | 0V | 00:00:00 | 00:00:00 | 00:00:00 | |
| LZ3DJ-16 | 2026-09-01 12:17:24 | 42.58513 | 23.94093 | 61° | 64km/h | 15921m | 6.0m/s | -62.0°C | 4.7% | 0hPa | 0V | 00:00:00 | 00:00:00 | 00:00:00 | |
| LZ3DJ-16 | 2026-09-01 12:17:04 | 42.58392 | 23.93669 | 78° | 57km/h | 15810m | 4.2m/s | -62.3°C | 4.9% | 0hPa | 0V | 00:00:00 | 00:00:00 | 00:00:00 | |
| LZ3DJ-16 | 2026-09-01 12:16:42 | 42.58308 | 23.93329 | 69° | 46km/h | 15703m | 7.2m/s | -62.3°C | 5.2% | 0hPa | 0V | 00:00:00 | 00:00:00 | 00:00:00 | |
| LZ3DJ-16 | 2026-09-01 12:16:22 | 42.58253 | 23.93023 | 94° | 44km/h | 15597m | 5.5m/s | -61.9°C | 5.5% | 0hPa | 0V | 00:00:00 | 00:00:00 | 00:00:00 | |
| LZ4TU-5 | 2026-09-01 12:16:01 | 42.58243 | 23.92703 | 90° | 47km/h | 15487m | 5.3m/s | -61.3°C | 0% | 0hPa | 0V | 00:00:00 | 00:00:00 | 00:00:00 | |
| LZ3DJ-16 | 2026-09-01 12:16:00 | 42.58243 | 23.92703 | 90° | 47km/h | 15487m | 5.3m/s | -61.3°C | 5.8% | 0hPa | 0V | 00:00:00 | 00:00:00 | 00:00:00 | |
| LZ4TU-5 | 2026-09-01 12:15:57 | 42.58243 | 23.92625 | 91° | 46km/h | 15460m | 6.4m/s | -61.3°C | 0% | 0hPa | 0V | 00:00:00 | 00:00:00 | 00:00:00 | |
| LZ3DJ-16 | 2026-09-01 12:15:39 | 42.58237 | 23.92356 | 92° | 47km/h | 15370m | 4.2m/s | -61.6°C | 6.7% | 0hPa | 0V | 00:00:00 | 00:00:00 | 00:00:00 | |
| LZ3DJ-16 | 2026-09-01 12:15:20 | 42.58269 | 23.91951 | 96° | 55km/h | 15263m | 4.4m/s | -61.9°C | 8.0% | 0hPa | 0V | 00:00:00 | 00:00:00 | 00:00:00 | |
| LZ3DJ-16 | 2026-09-01 12:14:59 | 42.58280 | 23.91580 | 92° | 57km/h | 15160m | 6.2m/s | -62.7°C | 9.1% | 0hPa | 0V | 00:00:00 | 00:00:00 | 00:00:00 | |
| LZ3DJ-16 | 2026-09-01 12:14:38 | 42.58295 | 23.91131 | 95° | 64km/h | 15051m | 4.3m/s | -62.8°C | 9.7% | 0hPa | 0V | 00:00:00 | 00:00:00 | 00:00:00 | |
| LZ3DJ-16 | 2026-09-01 12:14:17 | 42.58277 | 23.90651 | 89° | 62km/h | 14939m | 7.1m/s | -62.7°C | 10.6% | 0hPa | 0V | 00:00:00 | 00:00:00 | 00:00:00 | |
| LZ4TU-5 | 2026-09-01 12:14:04 | 42.58261 | 23.90392 | 90° | 62km/h | 14872m | 5.2m/s | -62.7°C | 0% | 0hPa | 0V | 00:00:00 | 00:00:00 | 00:00:00 | |
| LZ4TU-5 | 2026-09-01 12:13:59 | 42.58261 | 23.90288 | 92° | 57km/h | 14845m | 5.1m/s | -62.5°C | 0% | 0hPa | 0V | 00:00:00 | 00:00:00 | 00:00:00 | |
| LZ3DJ-16 | 2026-09-01 12:13:56 | 42.58262 | 23.90251 | 94° | 53km/h | 14834m | 6.4m/s | -62.6°C | 11.2% | 0hPa | 0V | 00:00:00 | 00:00:00 | 00:00:00 | |
| LZ4TU-5 | 2026-09-01 12:13:54 | 42.58265 | 23.90197 | 98° | 51km/h | 14819m | 6.1m/s | -62.5°C | 0% | 0hPa | 0V | 00:00:00 | 00:00:00 | 00:00:00 | |
| LZ3DJ-16 | 2026-09-01 12:13:36 | 42.58322 | 23.89847 | 102° | 64km/h | 14716m | 4.3m/s | -62.7°C | 12.1% | 0hPa | 0V | 00:00:00 | 00:00:00 | 00:00:00 | |
| LZ3DJ-16 | 2026-09-01 12:13:15 | 42.58443 | 23.89378 | 112° | 78km/h | 14596m | 5.3m/s | -62.9°C | 13.5% | 0hPa | 0V | 00:00:00 | 00:00:00 | 00:00:00 | |
| LZ3DJ-16 | 2026-09-01 12:12:54 | 42.58564 | 23.88818 | 103° | 82km/h | 14488m | 4.6m/s | -62.5°C | 14.1% | 0hPa | 0V | 00:00:00 | 00:00:00 | 00:00:00 | |
| LZ3DJ-16 | 2026-09-01 12:12:33 | 42.58613 | 23.88265 | 92° | 78km/h | 14388m | 4.6m/s | -62.5°C | 14.3% | 0hPa | 0V | 00:00:00 | 00:00:00 | 00:00:00 | |
| LZ3DJ-16 | 2026-09-01 12:12:13 | 42.58589 | 23.87681 | 85° | 80km/h | 14279m | 5.6m/s | -62.5°C | 15.3% | 0hPa | 0V | 00:00:00 | 00:00:00 | 00:00:00 | |
| LZ4TU-5 | 2026-09-01 12:12:00 | 42.58562 | 23.87360 | 87° | 77km/h | 14216m | 4.1m/s | -62.2°C | 0% | 0hPa | 0V | 00:00:00 | 00:00:00 | 00:00:00 | |
| LZ4TU-5 | 2026-09-01 12:11:56 | 42.58556 | 23.87230 | 88° | 78km/h | 14192m | 4.4m/s | -62.2°C | 0% | 0hPa | 0V | 00:00:00 | 00:00:00 | 00:00:00 | |
| LZ3DJ-16 | 2026-09-01 12:11:53 | 42.58553 | 23.87147 | 89° | 84km/h | 14177m | 5.0m/s | -62.2°C | 15.3% | 0hPa | 0V | 00:00:00 | 00:00:00 | 00:00:00 | |
| LZ4TU-5 | 2026-09-01 12:11:50 | 42.58553 | 23.87089 | 91° | 84km/h | 14166m | 5.2m/s | -62.2°C | 0% | 0hPa | 0V | 00:00:00 | 00:00:00 | 00:00:00 | |
| LZ3DJ-16 | 2026-09-01 12:11:32 | 42.58553 | 23.86562 | 92° | 78km/h | 14068m | 5.0m/s | -61.9°C | 16.3% | 0hPa | 0V | 00:00:00 | 00:00:00 | 00:00:00 | |
| LZ3DJ-16 | 2026-09-01 12:11:12 | 42.58541 | 23.85990 | 85° | 84km/h | 13965m | 5.4m/s | -61.8°C | 16.6% | 0hPa | 0V | 00:00:00 | 00:00:00 | 00:00:00 | |
| LZ3DJ-16 | 2026-09-01 12:10:51 | 42.58545 | 23.85440 | 92° | 77km/h | 13864m | 4.6m/s | -61.4°C | 17.8% | 0hPa | 0V | 00:00:00 | 00:00:00 | 00:00:00 | |
| LZ3DJ-16 | 2026-09-01 12:10:30 | 42.58583 | 23.84896 | 99° | 78km/h | 13760m | 5.1m/s | -61.1°C | 18.6% | 0hPa | 0V | 00:00:00 | 00:00:00 | 00:00:00 | |
| LZ3DJ-16 | 2026-09-01 12:10:11 | 42.58635 | 23.84328 | 100° | 91km/h | 13656m | 3.5m/s | -61.1°C | 19.2% | 0hPa | 0V | 00:00:00 | 00:00:00 | 00:00:00 | |
| LZ4TU-5 | 2026-09-01 12:10:00 | 42.58679 | 23.84009 | 101° | 86km/h | 13604m | 5.6m/s | -61.2°C | 0% | 0hPa | 0V | 00:00:00 | 00:00:00 | 00:00:00 | |
| LZ4TU-5 | 2026-09-01 12:09:55 | 42.58693 | 23.83867 | 97° | 82km/h | 13579m | 4.7m/s | -61.0°C | 0% | 0hPa | 0V | 00:00:00 | 00:00:00 | 00:00:00 | |
| LZ3DJ-16 | 2026-09-01 12:09:50 | 42.58703 | 23.83752 | 101° | 88km/h | 13561m | 5.2m/s | -61.1°C | 19.0% | 0hPa | 0V | 00:00:00 | 00:00:00 | 00:00:00 | |
| LZ3DJ-16 | 2026-09-01 12:09:30 | 42.58784 | 23.83116 | 97° | 95km/h | 13453m | 5.1m/s | -60.8°C | 20.1% | 0hPa | 0V | 00:00:00 | 00:00:00 | 00:00:00 | |
| LZ3DJ-16 | 2026-09-01 12:09:09 | 42.58842 | 23.82471 | 96° | 100km/h | 13347m | 5.9m/s | -61.3°C | 22.5% | 0hPa | 0V | 00:00:00 | 00:00:00 | 00:00:00 | |
| LZ3DJ-16 | 2026-09-01 12:08:49 | 42.58888 | 23.81780 | 96° | 102km/h | 13237m | 4.6m/s | -60.8°C | 24.5% | 0hPa | 0V | 00:00:00 | 00:00:00 | 00:00:00 | |
| LZ3DJ-16 | 2026-09-01 12:08:28 | 42.58944 | 23.81110 | 96° | 97km/h | 13134m | 4.3m/s | -60.2°C | 27.2% | 0hPa | 0V | 00:00:00 | 00:00:00 | 00:00:00 | |
| LZ3DJ-16 | 2026-09-01 12:08:08 | 42.59023 | 23.80419 | 101° | 97km/h | 13024m | 6.1m/s | -59.0°C | 25.7% | 0hPa | 0V | 00:00:00 | 00:00:00 | 00:00:00 | |
| LZ4TU-5 | 2026-09-01 12:08:02 | 42.59045 | 23.80258 | 100° | 95km/h | 12998m | 3.9m/s | -59.0°C | 0% | 0hPa | 0V | 00:00:00 | 00:00:00 | 00:00:00 | |
| LZ4TU-5 | 2026-09-01 12:07:58 | 42.59067 | 23.80095 | 103° | 99km/h | 12971m | 5.4m/s | -58.9°C | 0% | 0hPa | 0V | 00:00:00 | 00:00:00 | 00:00:00 | |
| LZ4TU-5 | 2026-09-01 12:07:53 | 42.59091 | 23.79928 | 102° | 100km/h | 12947m | 3.7m/s | -59.1°C | 0% | 0hPa | 0V | 00:00:00 | 00:00:00 | 00:00:00 | |
| LZ3DJ-16 | 2026-09-01 12:07:48 | 42.59111 | 23.79762 | 98° | 97km/h | 12920m | 5.3m/s | -59.0°C | 25.7% | 0hPa | 0V | 00:00:00 | 00:00:00 | 00:00:00 | |
| LZ3DJ-16 | 2026-09-01 12:07:28 | 42.59180 | 23.79076 | 96° | 99km/h | 12814m | 5.2m/s | -58.4°C | 27.0% | 0hPa | 0V | 00:00:00 | 00:00:00 | 00:00:00 | |
| LZ3DJ-16 | 2026-09-01 12:07:07 | 42.59247 | 23.78357 | 100° | 104km/h | 12701m | 4.7m/s | -57.4°C | 25.4% | 0hPa | 0V | 00:00:00 | 00:00:00 | 00:00:00 | |
| LZ3DJ-16 | 2026-09-01 12:06:46 | 42.59318 | 23.77639 | 103° | 99km/h | 12595m | 4.6m/s | -56.8°C | 23.8% | 0hPa | 0V | 00:00:00 | 00:00:00 | 00:00:00 | |
| LZ3DJ-16 | 2026-09-01 12:06:25 | 42.59420 | 23.76932 | 105° | 104km/h | 12484m | 5.0m/s | -56.1°C | 25.1% | 0hPa | 0V | 00:00:00 | 00:00:00 | 00:00:00 | |
| LZ4TU-5 | 2026-09-01 12:06:07 | 42.59508 | 23.76320 | 98° | 99km/h | 12380m | 5.7m/s | -55.5°C | 0% | 0hPa | 0V | 00:00:00 | 00:00:00 | 00:00:00 | |
| LZ4TU-5 | 2026-09-01 12:06:03 | 42.59520 | 23.76183 | 100° | 106km/h | 12357m | 3.7m/s | -55.3°C | 0% | 0hPa | 0V | 00:00:00 | 00:00:00 | 00:00:00 | |
| LZ3DJ-16 | 2026-09-01 12:05:44 | 42.59608 | 23.75530 | 101° | 97km/h | 12258m | 6.7m/s | -54.3°C | 20.4% | 0hPa | 0V | 00:00:00 | 00:00:00 | 00:00:00 | |
| LZ3DJ-16 | 2026-09-01 12:05:23 | 42.59686 | 23.74847 | 96° | 104km/h | 12147m | 4.7m/s | -53.2°C | 19.6% | 0hPa | 0V | 00:00:00 | 00:00:00 | 00:00:00 | |
| LZ3DJ-16 | 2026-09-01 12:05:03 | 42.59749 | 23.74114 | 98° | 108km/h | 12037m | 6.5m/s | -52.8°C | 21.8% | 0hPa | 0V | 00:00:00 | 00:00:00 | 00:00:00 | |
| LZ3DJ-16 | 2026-09-01 12:04:43 | 42.59813 | 23.73393 | 100° | 108km/h | 11929m | 5.6m/s | -52.0°C | 20.3% | 0hPa | 0V | 00:00:00 | 00:00:00 | 00:00:00 | |
| LZ3DJ-16 | 2026-09-01 12:04:23 | 42.59903 | 23.72655 | 100° | 106km/h | 11822m | 3.9m/s | -50.9°C | 18.8% | 0hPa | 0V | 00:00:00 | 00:00:00 | 00:00:00 | |
| LZ4TU-5 | 2026-09-01 12:04:10 | 42.59943 | 23.72224 | 100° | 102km/h | 11761m | 8.8m/s | -50.4°C | 0% | 0hPa | 0V | 00:00:00 | 00:00:00 | 00:00:00 | |
| LZ4TU-5 | 2026-09-01 12:04:06 | 42.59961 | 23.72043 | 98° | 111km/h | 11730m | 6.9m/s | -50.1°C | 0% | 0hPa | 0V | 00:00:00 | 00:00:00 | 00:00:00 | |
| LZ3DJ-16 | 2026-09-01 12:04:02 | 42.59971 | 23.71928 | 98° | 113km/h | 11714m | 4.2m/s | -49.9°C | 17.3% | 0hPa | 0V | 00:00:00 | 00:00:00 | 00:00:00 | |
| LZ3DJ-16 | 2026-09-01 12:03:43 | 42.60040 | 23.71186 | 98° | 111km/h | 11611m | 4.8m/s | -49.1°C | 16.8% | 0hPa | 0V | 00:00:00 | 00:00:00 | 00:00:00 | |
| LZ3DJ-16 | 2026-09-01 12:03:21 | 42.60096 | 23.70413 | 91° | 102km/h | 11502m | 5.8m/s | -48.2°C | 15.2% | 0hPa | 0V | 00:00:00 | 00:00:00 | 00:00:00 | |
| LZ3DJ-16 | 2026-09-01 12:03:00 | 42.60125 | 23.69641 | 94° | 111km/h | 11393m | 6.2m/s | -47.3°C | 14.4% | 0hPa | 0V | 00:00:00 | 00:00:00 | 00:00:00 | |
| LZ3DJ-16 | 2026-09-01 12:02:40 | 42.60184 | 23.68860 | 99° | 110km/h | 11290m | 4.0m/s | -46.8°C | 16.1% | 0hPa | 0V | 00:00:00 | 00:00:00 | 00:00:00 | |
| LZ4TU-5 | 2026-09-01 12:02:24 | 42.60250 | 23.68280 | 101° | 108km/h | 11207m | 4.2m/s | -46.4°C | 0% | 0hPa | 0V | 00:00:00 | 00:00:00 | 00:00:00 | |
| LZ3DJ-16 | 2026-09-01 12:02:20 | 42.60265 | 23.68134 | 99° | 108km/h | 11187m | 4.4m/s | -46.3°C | 17.4% | 0hPa | 0V | 00:00:00 | 00:00:00 | 00:00:00 | |
| LZ4TU-5 | 2026-09-01 12:02:19 | 42.60269 | 23.68097 | 98° | 108km/h | 11182m | 4.7m/s | -46.2°C | 0% | 0hPa | 0V | 00:00:00 | 00:00:00 | 00:00:00 | |
| LZ3DJ-16 | 2026-09-01 12:01:59 | 42.60342 | 23.67351 | 98° | 108km/h | 11085m | 5.0m/s | -45.7°C | 18.2% | 0hPa | 0V | 00:00:00 | 00:00:00 | 00:00:00 | |
| LZ3DJ-16 | 2026-09-01 12:01:38 | 42.60430 | 23.66580 | 97° | 110km/h | 10978m | 3.4m/s | -44.8°C | 15.6% | 0hPa | 0V | 00:00:00 | 00:00:00 | 00:00:00 | |
| LZ3DJ-16 | 2026-09-01 12:01:17 | 42.60509 | 23.65856 | 98° | 108km/h | 10875m | 5.4m/s | -43.9°C | 14.3% | 0hPa | 0V | 00:00:00 | 00:00:00 | 00:00:00 | |
| LZ3DJ-16 | 2026-09-01 12:00:56 | 42.60583 | 23.65101 | 100° | 108km/h | 10769m | 5.3m/s | -43.1°C | 13.4% | 0hPa | 0V | 00:00:00 | 00:00:00 | 00:00:00 | |
| LZ3DJ-16 | 2026-09-01 12:00:36 | 42.60687 | 23.64410 | 101° | 102km/h | 10656m | 5.4m/s | -42.2°C | 13.2% | 0hPa | 0V | 00:00:00 | 00:00:00 | 00:00:00 | |
| LZ4TU-5 | 2026-09-01 12:00:31 | 42.60712 | 23.64203 | 101° | 102km/h | 10624m | 5.7m/s | -42.0°C | 0% | 0hPa | 0V | 00:00:00 | 00:00:00 | 00:00:00 | |
| LZ4TU-5 | 2026-09-01 12:00:26 | 42.60736 | 23.64023 | 101° | 106km/h | 10598m | 4.6m/s | -41.8°C | 0% | 0hPa | 0V | 00:00:00 | 00:00:00 | 00:00:00 | |
| LZ3DJ-16 | 2026-09-01 12:00:17 | 42.60781 | 23.63684 | 99° | 99km/h | 10546m | 4.4m/s | -41.4°C | 12.6% | 0hPa | 0V | 00:00:00 | 00:00:00 | 00:00:00 | |
| LZ3DJ-16 | 2026-09-01 11:59:55 | 42.60849 | 23.62966 | 97° | 102km/h | 10425m | 3.1m/s | -40.4°C | 12.3% | 0hPa | 0V | 00:00:00 | 00:00:00 | 00:00:00 | |
| LZ3DJ-16 | 2026-09-01 11:59:35 | 42.60879 | 23.62273 | 99° | 97km/h | 10320m | 1.5m/s | -40.0°C | 15.4% | 0hPa | 0V | 00:00:00 | 00:00:00 | 00:00:00 | |
| LZ3DJ-16 | 2026-09-01 11:59:15 | 42.60942 | 23.61618 | 101° | 95km/h | 10199m | 8.5m/s | -39.2°C | 14.2% | 0hPa | 0V | 00:00:00 | 00:00:00 | 00:00:00 | |
| LZ3DJ-16 | 2026-09-01 11:58:53 | 42.61037 | 23.60933 | 97° | 99km/h | 10082m | 5.1m/s | -38.2°C | 14.0% | 0hPa | 0V | 00:00:00 | 00:00:00 | 00:00:00 | |
| LZ4TU-5 | 2026-09-01 11:58:36 | 42.61108 | 23.60334 | 103° | 93km/h | 9980m | 7.2m/s | -37.5°C | 0% | 0hPa | 0V | 00:00:00 | 00:00:00 | 00:00:00 | |
| LZ3DJ-16 | 2026-09-01 11:58:34 | 42.61120 | 23.60271 | 104° | 97km/h | 9968m | 5.5m/s | -37.4°C | 14.4% | 0hPa | 0V | 00:00:00 | 00:00:00 | 00:00:00 | |
| LZ4TU-5 | 2026-09-01 11:58:32 | 42.61131 | 23.60204 | 104° | 100km/h | 9958m | 5.7m/s | -37.3°C | 0% | 0hPa | 0V | 00:00:00 | 00:00:00 | 00:00:00 | |
| LZ3DJ-16 | 2026-09-01 11:58:13 | 42.61220 | 23.59595 | 99° | 95km/h | 9858m | 3.5m/s | -36.5°C | 14.3% | 0hPa | 0V | 00:00:00 | 00:00:00 | 00:00:00 | |
| LZ3DJ-16 | 2026-09-01 11:57:53 | 42.61304 | 23.58949 | 98° | 93km/h | 9749m | 6.2m/s | -35.7°C | 14.1% | 0hPa | 0V | 00:00:00 | 00:00:00 | 00:00:00 | |
| LZ3DJ-16 | 2026-09-01 11:57:32 | 42.61358 | 23.58266 | 101° | 97km/h | 9632m | 4.8m/s | -34.7°C | 13.5% | 0hPa | 0V | 00:00:00 | 00:00:00 | 00:00:00 | |
| LZ3DJ-16 | 2026-09-01 11:57:11 | 42.61421 | 23.57617 | 98° | 89km/h | 9513m | 5.3m/s | -33.7°C | 12.9% | 0hPa | 0V | 00:00:00 | 00:00:00 | 00:00:00 | |
| LZ3DJ-16 | 2026-09-01 11:56:50 | 42.61473 | 23.56948 | 94° | 93km/h | 9402m | 4.0m/s | -33.0°C | 13.7% | 0hPa | 0V | 00:00:00 | 00:00:00 | 00:00:00 | |
| LZ4TU-5 | 2026-09-01 11:56:45 | 42.61478 | 23.56795 | 93° | 88km/h | 9374m | 3.5m/s | -32.8°C | 0% | 0hPa | 0V | 00:00:00 | 00:00:00 | 00:00:00 | |
| LZ4TU-5 | 2026-09-01 11:56:40 | 42.61488 | 23.56641 | 97° | 89km/h | 9348m | 4.4m/s | -32.7°C | 0% | 0hPa | 0V | 00:00:00 | 00:00:00 | 00:00:00 | |
| LZ3DJ-16 | 2026-09-01 11:56:29 | 42.61517 | 23.56318 | 99° | 102km/h | 9299m | 3.5m/s | -32.3°C | 16.2% | 0hPa | 0V | 00:00:00 | 00:00:00 | 00:00:00 | |
| LZ3DJ-16 | 2026-09-01 11:56:09 | 42.61588 | 23.55643 | 101° | 95km/h | 9187m | 5.4m/s | -31.4°C | 15.1% | 0hPa | 0V | 00:00:00 | 00:00:00 | 00:00:00 | |
| LZ3DJ-16 | 2026-09-01 11:55:48 | 42.61651 | 23.54937 | 96° | 99km/h | 9065m | 2.6m/s | -30.3°C | 14.7% | 0hPa | 0V | 00:00:00 | 00:00:00 | 00:00:00 | |
| LZ3DJ-16 | 2026-09-01 11:55:28 | 42.61725 | 23.54265 | 96° | 95km/h | 8961m | 5.8m/s | -29.4°C | 14.1% | 0hPa | 0V | 00:00:00 | 00:00:00 | 00:00:00 | |
| LZ3DJ-16 | 2026-09-01 11:55:07 | 42.61776 | 23.53574 | 98° | 97km/h | 8858m | 4.5m/s | -28.5°C | 11.8% | 0hPa | 0V | 00:00:00 | 00:00:00 | 00:00:00 | |
| LZ4TU-5 | 2026-09-01 11:54:55 | 42.61811 | 23.53163 | 99° | 97km/h | 8796m | 4.7m/s | -28.0°C | 0% | 0hPa | 0V | 00:00:00 | 00:00:00 | 00:00:00 | |
| LZ4TU-5 | 2026-09-01 11:54:51 | 42.61818 | 23.53027 | 93° | 97km/h | 8772m | 4.3m/s | 0°C | 0% | 0hPa | 0V | 00:00:00 | 00:00:00 | 00:00:00 | |
| LZ3DJ-16 | 2026-09-01 11:54:47 | 42.61823 | 23.52903 | 97° | 88km/h | 8752m | 4.6m/s | -27.6°C | 8.5% | 0hPa | 0V | 00:00:00 | 00:00:00 | 00:00:00 | |
| LZ3DJ-16 | 2026-09-01 11:54:26 | 42.61880 | 23.52223 | 99° | 89km/h | 8631m | 5.8m/s | -26.8°C | 7.5% | 0hPa | 0V | 00:00:00 | 00:00:00 | 00:00:00 | |
| LZ3DJ-16 | 2026-09-01 11:54:05 | 42.61950 | 23.51582 | 104° | 91km/h | 8509m | 7.4m/s | -25.9°C | 6.1% | 0hPa | 0V | 00:00:00 | 00:00:00 | 00:00:00 | |
| LZ3DJ-16 | 2026-09-01 11:53:44 | 42.62017 | 23.50966 | 97° | 80km/h | 8390m | 2.7m/s | -25.2°C | 6.0% | 0hPa | 0V | 00:00:00 | 00:00:00 | 00:00:00 | |
| LZ3DJ-16 | 2026-09-01 11:53:24 | 42.62082 | 23.50436 | 98° | 71km/h | 8282m | 6.1m/s | -24.8°C | 7.9% | 0hPa | 0V | 00:00:00 | 00:00:00 | 00:00:00 | |
| LZ4TU-5 | 2026-09-01 11:53:07 | 42.62142 | 23.50036 | 106° | 73km/h | 8180m | 5.8m/s | 0°C | 0% | 0hPa | 0V | 00:00:00 | 00:00:00 | 00:00:00 | |
| LZ3DJ-16 | 2026-09-01 11:53:03 | 42.62160 | 23.49946 | 102° | 64km/h | 8157m | 5.9m/s | -23.8°C | 9.9% | 0hPa | 0V | 00:00:00 | 00:00:00 | 00:00:00 | |
| LZ4TU-5 | 2026-09-01 11:53:02 | 42.62163 | 23.49924 | 101° | 68km/h | 8150m | 6.0m/s | 0°C | 0% | 0hPa | 0V | 00:00:00 | 00:00:00 | 00:00:00 | |
| LZ3DJ-16 | 2026-09-01 11:52:43 | 42.62203 | 23.49468 | 102° | 68km/h | 8049m | 6.2m/s | -22.9°C | 10.3% | 0hPa | 0V | 00:00:00 | 00:00:00 | 00:00:00 | |
| LZ3DJ-16 | 2026-09-01 11:52:22 | 42.62281 | 23.48967 | 105° | 68km/h | 7930m | 8.5m/s | -21.9°C | 11.3% | 0hPa | 0V | 00:00:00 | 00:00:00 | 00:00:00 | |
| LZ3DJ-16 | 2026-09-01 11:52:01 | 42.62376 | 23.48503 | 107° | 66km/h | 7811m | 4.0m/s | -21.0°C | 11.8% | 0hPa | 0V | 00:00:00 | 00:00:00 | 00:00:00 | |
| LZ3DJ-16 | 2026-09-01 11:51:41 | 42.62446 | 23.48079 | 103° | 62km/h | 7710m | 5.5m/s | -20.3°C | 13.6% | 0hPa | 0V | 00:00:00 | 00:00:00 | 00:00:00 | |
| LZ3DJ-16 | 2026-09-01 11:51:20 | 42.62521 | 23.47639 | 98° | 66km/h | 7590m | 7.4m/s | -19.3°C | 12.3% | 0hPa | 0V | 00:00:00 | 00:00:00 | 00:00:00 | |
| LZ4TU-5 | 2026-09-01 11:51:18 | 42.62523 | 23.47616 | 97° | 69km/h | 7584m | 3.9m/s | 0°C | 0% | 0hPa | 0V | 00:00:00 | 00:00:00 | 00:00:00 | |
| LZ4TU-5 | 2026-09-01 11:51:14 | 42.62531 | 23.47501 | 99° | 60km/h | 7561m | 7.6m/s | 0°C | 0% | 0hPa | 0V | 00:00:00 | 00:00:00 | 00:00:00 | |
| LZ3DJ-16 | 2026-09-01 11:50:59 | 42.62562 | 23.47180 | 95° | 60km/h | 7482m | 6.4m/s | -18.5°C | 12.9% | 0hPa | 0V | 00:00:00 | 00:00:00 | 00:00:00 | |
| LZ3DJ-16 | 2026-09-01 11:50:38 | 42.62619 | 23.46720 | 96° | 57km/h | 7369m | 4.5m/s | -17.8°C | 15.5% | 0hPa | 0V | 00:00:00 | 00:00:00 | 00:00:00 | |
| LZ3DJ-16 | 2026-09-01 11:50:18 | 42.62676 | 23.46306 | 106° | 57km/h | 7262m | 2.0m/s | -17.2°C | 17.3% | 0hPa | 0V | 00:00:00 | 00:00:00 | 00:00:00 | |
| LZ3DJ-16 | 2026-09-01 11:49:58 | 42.62747 | 23.45933 | 108° | 55km/h | 7134m | 8.9m/s | -16.2°C | 17.0% | 0hPa | 0V | 00:00:00 | 00:00:00 | 00:00:00 | |
| LZ3DJ-16 | 2026-09-01 11:49:37 | 42.62824 | 23.45538 | 112° | 53km/h | 7013m | 4.1m/s | -15.1°C | 13.4% | 0hPa | 0V | 00:00:00 | 00:00:00 | 00:00:00 | |
| LZ4TU-5 | 2026-09-01 11:49:32 | 42.62851 | 23.45449 | 115° | 55km/h | 6988m | 6.6m/s | 0°C | 0% | 0hPa | 0V | 00:00:00 | 00:00:00 | 00:00:00 | |
| LZ4TU-5 | 2026-09-01 11:49:27 | 42.62868 | 23.45366 | 94° | 49km/h | 6962m | 4.9m/s | 0°C | 0% | 0hPa | 0V | 00:00:00 | 00:00:00 | 00:00:00 | |
| LZ3DJ-16 | 2026-09-01 11:49:17 | 42.62890 | 23.45177 | 111° | 64km/h | 6904m | 6.4m/s | -14.3°C | 3.7% | 0hPa | 0V | 00:00:00 | 00:00:00 | 00:00:00 | |
| LZ3DJ-16 | 2026-09-01 11:48:57 | 42.62988 | 23.44812 | 107° | 49km/h | 6800m | 7.0m/s | -13.6°C | 2.8% | 0hPa | 0V | 00:00:00 | 00:00:00 | 00:00:00 | |
| LZ3DJ-16 | 2026-09-01 11:48:37 | 42.63083 | 23.44504 | 108° | 51km/h | 6680m | 5.5m/s | -13.1°C | 2.0% | 0hPa | 0V | 00:00:00 | 00:00:00 | 00:00:00 | |
| LZ3DJ-16 | 2026-09-01 11:48:16 | 42.63192 | 23.44154 | 127° | 46km/h | 6553m | 5.4m/s | -12.3°C | 2.6% | 0hPa | 0V | 00:00:00 | 00:00:00 | 00:00:00 | |
| LZ3DJ-16 | 2026-09-01 11:47:56 | 42.63285 | 23.43907 | 108° | 38km/h | 6441m | 3.3m/s | -11.6°C | 3.1% | 0hPa | 0V | 00:00:00 | 00:00:00 | 00:00:00 | |
| LZ4TU-5 | 2026-09-01 11:47:40 | 42.63354 | 23.43729 | 114° | 27km/h | 6351m | 8.9m/s | 0°C | 0% | 0hPa | 0V | 00:00:00 | 00:00:00 | 00:00:00 | |
| LZ4TU-5 | 2026-09-01 11:47:36 | 42.63367 | 23.43682 | 117° | 38km/h | 6329m | 7.3m/s | 0°C | 0% | 0hPa | 0V | 00:00:00 | 00:00:00 | 00:00:00 | |
| LZ3DJ-16 | 2026-09-01 11:47:35 | 42.63372 | 23.43671 | 125° | 40km/h | 6324m | 3.9m/s | -10.6°C | 2.8% | 0hPa | 0V | 00:00:00 | 00:00:00 | 00:00:00 | |
| LZ3DJ-16 | 2026-09-01 11:47:14 | 42.63462 | 23.43471 | 126° | 38km/h | 6197m | 4.7m/s | -9.6°C | 2.9% | 0hPa | 0V | 00:00:00 | 00:00:00 | 00:00:00 | |
| LZ3DJ-16 | 2026-09-01 11:46:54 | 42.63508 | 23.43280 | 107° | 24km/h | 6082m | 5.4m/s | -8.8°C | 2.9% | 0hPa | 0V | 00:00:00 | 00:00:00 | 00:00:00 | |
| LZ3DJ-16 | 2026-09-01 11:46:33 | 42.63540 | 23.43107 | 120° | 27km/h | 5954m | 6.6m/s | -7.8°C | 3.0% | 0hPa | 0V | 00:00:00 | 00:00:00 | 00:00:00 | |
| LZ3DJ-16 | 2026-09-01 11:46:12 | 42.63598 | 23.42940 | 121° | 26km/h | 5842m | 6.3m/s | -7.1°C | 2.6% | 0hPa | 0V | 00:00:00 | 00:00:00 | 00:00:00 | |
| LZ4TU-5 | 2026-09-01 11:45:57 | 42.63628 | 23.42826 | 101° | 26km/h | 5749m | 7.5m/s | 0°C | 0% | 0hPa | 0V | 00:00:00 | 00:00:00 | 00:00:00 | |
| LZ3DJ-16 | 2026-09-01 11:45:52 | 42.63625 | 23.42778 | 81° | 26km/h | 5721m | 2.8m/s | -6.6°C | 2.1% | 0hPa | 0V | 00:00:00 | 00:00:00 | 00:00:00 | |
| LZ3DJ-16 | 2026-09-01 11:45:32 | 42.63638 | 23.42628 | 106° | 13km/h | 5609m | 3.6m/s | -7.3°C | 14.7% | 0hPa | 0V | 00:00:00 | 00:00:00 | 00:00:00 | |
| LZ3DJ-16 | 2026-09-01 11:45:12 | 42.63719 | 23.42480 | 141° | 26km/h | 5497m | 4.1m/s | -6.4°C | 17.5% | 0hPa | 0V | 00:00:00 | 00:00:00 | 00:00:00 | |
| LZ3DJ-16 | 2026-09-01 11:44:50 | 42.63788 | 23.42314 | 133° | 33km/h | 5377m | 4.0m/s | -5.4°C | 17.7% | 0hPa | 0V | 00:00:00 | 00:00:00 | 00:00:00 | |
| LZ3DJ-16 | 2026-09-01 11:44:30 | 42.63861 | 23.42159 | 130° | 35km/h | 5271m | 7.4m/s | -4.8°C | 18.4% | 0hPa | 0V | 00:00:00 | 00:00:00 | 00:00:00 | |
| LZ4TU-5 | 2026-09-01 11:44:12 | 42.63940 | 23.42025 | 148° | 24km/h | 5175m | 3.5m/s | 0°C | 0% | 0hPa | 0V | 00:00:00 | 00:00:00 | 00:00:00 | |
| LZ4TU-5 | 2026-09-01 11:44:08 | 42.63965 | 23.41991 | 120° | 35km/h | 5146m | 6.7m/s | 0°C | 0% | 0hPa | 0V | 00:00:00 | 00:00:00 | 00:00:00 | |
| LZ3DJ-16 | 2026-09-01 11:44:05 | 42.63981 | 23.41957 | 123° | 42km/h | 5129m | 4.7m/s | -4.5°C | 26.2% | 0hPa | 0V | 00:00:00 | 00:00:00 | 00:00:00 | |
| LZ3DJ-16 | 2026-09-01 11:43:43 | 42.64077 | 23.41784 | 100° | 24km/h | 5022m | 5.6m/s | -3.7°C | 16.0% | 0hPa | 0V | 00:00:00 | 00:00:00 | 00:00:00 | |
| LZ3DJ-16 | 2026-09-01 11:43:22 | 42.64160 | 23.41654 | 127° | 24km/h | 4911m | 8.6m/s | -3.0°C | 9.0% | 0hPa | 0V | 00:00:00 | 00:00:00 | 00:00:00 | |
| LZ3DJ-16 | 2026-09-01 11:43:01 | 42.64249 | 23.41525 | 121° | 33km/h | 4806m | 5.8m/s | -3.3°C | 42.9% | 0hPa | 0V | 00:00:00 | 00:00:00 | 00:00:00 | |
| LZ3DJ-16 | 2026-09-01 11:42:40 | 42.64311 | 23.41306 | 97° | 31km/h | 4692m | 4.3m/s | -2.7°C | 45.2% | 0hPa | 0V | 00:00:00 | 00:00:00 | 00:00:00 | |
| LZ4TU-5 | 2026-09-01 11:42:28 | 42.64329 | 23.41212 | 90° | 33km/h | 4619m | 3.8m/s | 0°C | 0% | 0hPa | 0V | 00:00:00 | 00:00:00 | 00:00:00 | |
| LZ4TU-5 | 2026-09-01 11:42:24 | 42.64334 | 23.41147 | 92° | 35km/h | 4593m | 5.1m/s | 0°C | 0% | 0hPa | 0V | 00:00:00 | 00:00:00 | 00:00:00 | |
| LZ3DJ-16 | 2026-09-01 11:42:20 | 42.64331 | 23.41103 | 88° | 31km/h | 4572m | 5.4m/s | -2.4°C | 74.9% | 0hPa | 0V | 00:00:00 | 00:00:00 | 00:00:00 | |
| LZ3DJ-16 | 2026-09-01 11:41:59 | 42.64369 | 23.40890 | 95° | 38km/h | 4458m | 4.1m/s | -1.5°C | 77.7% | 0hPa | 0V | 00:00:00 | 00:00:00 | 00:00:00 | |
| LZ3DJ-16 | 2026-09-01 11:41:39 | 42.64371 | 23.40700 | 88° | 22km/h | 4350m | 5.5m/s | -0.6°C | 68.9% | 0hPa | 0V | 00:00:00 | 00:00:00 | 00:00:00 | |
| LZ3DJ-16 | 2026-09-01 11:41:19 | 42.64382 | 23.40553 | 139° | 18km/h | 4241m | 5.2m/s | 0.4°C | 57.5% | 0hPa | 0V | 00:00:00 | 00:00:00 | 00:00:00 | |
| LZ3DJ-16 | 2026-09-01 11:40:58 | 42.64423 | 23.40373 | 111° | 37km/h | 4127m | 3.9m/s | 1.2°C | 27.5% | 0hPa | 0V | 00:00:00 | 00:00:00 | 00:00:00 | |
| LZ4TU-5 | 2026-09-01 11:40:53 | 42.64443 | 23.40330 | 115° | 24km/h | 4100m | 5.5m/s | 0°C | 0% | 0hPa | 0V | 00:00:00 | 00:00:00 | 00:00:00 | |
| LZ4TU-5 | 2026-09-01 11:40:49 | 42.64455 | 23.40279 | 126° | 29km/h | 4071m | 4.6m/s | 0°C | 0% | 0hPa | 0V | 00:00:00 | 00:00:00 | 00:00:00 | |
| LZ3DJ-16 | 2026-09-01 11:40:38 | 42.64491 | 23.40214 | 127° | 22km/h | 4013m | 5.4m/s | 1.4°C | 44.1% | 0hPa | 0V | 00:00:00 | 00:00:00 | 00:00:00 | |
| LZ3DJ-16 | 2026-09-01 11:40:19 | 42.64542 | 23.40079 | 129° | 22km/h | 3896m | 5.5m/s | 2.3°C | 55.4% | 0hPa | 0V | 00:00:00 | 00:00:00 | 00:00:00 | |
| LZ3DJ-16 | 2026-09-01 11:39:58 | 42.64562 | 23.39932 | 113° | 13km/h | 3766m | 5.3m/s | 3.0°C | 80.5% | 0hPa | 0V | 00:00:00 | 00:00:00 | 00:00:00 | |
| LZ3DJ-16 | 2026-09-01 11:39:37 | 42.64603 | 23.39816 | 97° | 15km/h | 3646m | 5.2m/s | 3.8°C | 78.6% | 0hPa | 0V | 00:00:00 | 00:00:00 | 00:00:00 | |
| LZ4TU-5 | 2026-09-01 11:39:17 | 42.64640 | 23.39699 | 130° | 24km/h | 3514m | 5.2m/s | 0°C | 0% | 0hPa | 0V | 00:00:00 | 00:00:00 | 00:00:00 | |
| LZ4TU-5 | 2026-09-01 11:39:12 | 42.64647 | 23.39664 | 73° | 20km/h | 3491m | 4.5m/s | 0°C | 0% | 0hPa | 0V | 00:00:00 | 00:00:00 | 00:00:00 | |
| LZ3DJ-16 | 2026-09-01 11:38:56 | 42.64654 | 23.39546 | 112° | 22km/h | 3406m | 5.0m/s | 5.8°C | 72.5% | 0hPa | 0V | 00:00:00 | 00:00:00 | 00:00:00 | |
| LZ3DJ-16 | 2026-09-01 11:38:36 | 42.64694 | 23.39418 | 123° | 22km/h | 3295m | 5.2m/s | 6.8°C | 68.7% | 0hPa | 0V | 00:00:00 | 00:00:00 | 00:00:00 | |
| LZ3DJ-16 | 2026-09-01 11:38:16 | 42.64717 | 23.39261 | 106° | 20km/h | 3166m | 5.6m/s | 8.0°C | 59.6% | 0hPa | 0V | 00:00:00 | 00:00:00 | 00:00:00 | |
| LZ3DJ-16 | 2026-09-01 11:37:55 | 42.64788 | 23.39108 | 152° | 29km/h | 3049m | 4.6m/s | 8.8°C | 63.5% | 0hPa | 0V | 00:00:00 | 00:00:00 | 00:00:00 | |
| LZ4TU-5 | 2026-09-01 11:37:39 | 42.64833 | 23.39021 | 69° | 11km/h | 2962m | 7.1m/s | 0°C | 0% | 0hPa | 0V | 00:00:00 | 00:00:00 | 00:00:00 | |
| LZ3DJ-16 | 2026-09-01 11:37:35 | 42.64835 | 23.38999 | 114° | 22km/h | 2931m | 7.8m/s | 9.9°C | 59.9% | 0hPa | 0V | 00:00:00 | 00:00:00 | 00:00:00 | |
| LZ3DJ-16 | 2026-09-01 11:37:15 | 42.64899 | 23.38885 | 106° | 11km/h | 2821m | 5.3m/s | 10.9°C | 58.0% | 0hPa | 0V | 00:00:00 | 00:00:00 | 00:00:00 | |
| LZ3DJ-16 | 2026-09-01 11:36:53 | 42.64937 | 23.38753 | 134° | 22km/h | 2698m | 7.2m/s | 11.7°C | 65.3% | 0hPa | 0V | 00:00:00 | 00:00:00 | 00:00:00 | |
| LZ3DJ-16 | 2026-09-01 11:36:33 | 42.64960 | 23.38669 | 66° | 5km/h | 2578m | 4.9m/s | 12.6°C | 66.5% | 0hPa | 0V | 00:00:00 | 00:00:00 | 00:00:00 | |
| LZ3DJ-16 | 2026-09-01 11:36:13 | 42.64978 | 23.38641 | 103° | 9km/h | 2457m | 5.4m/s | 13.3°C | 66.2% | 0hPa | 0V | 00:00:00 | 00:00:00 | 00:00:00 | |
| LZ3DJ-16 | 2026-09-01 11:35:52 | 42.64972 | 23.38632 | 26° | 4km/h | 2333m | 4.9m/s | 14.0°C | 70.1% | 0hPa | 0V | 00:00:00 | 00:00:00 | 00:00:00 | |
| LZ3DJ-16 | 2026-09-01 11:35:30 | 42.64958 | 23.38619 | 232° | 4km/h | 2210m | 4.4m/s | 15.0°C | 67.5% | 0hPa | 0V | 00:00:00 | 00:00:00 | 00:00:00 | |
| LZ3DJ-16 | 2026-09-01 11:35:10 | 42.64976 | 23.38641 | 251° | 5km/h | 2094m | 5.0m/s | 16.1°C | 63.8% | 0hPa | 0V | 00:00:00 | 00:00:00 | 00:00:00 | |
| LZ3DJ-16 | 2026-09-01 11:34:49 | 42.64997 | 23.38636 | 0° | 0km/h | 1977m | 4.3m/s | 17.2°C | 59.9% | 0hPa | 0V | 00:00:00 | 00:00:00 | 00:00:00 | |
| LZ3DJ-16 | 2026-09-01 11:34:29 | 42.65023 | 23.38642 | 201° | 5km/h | 1871m | 5.5m/s | 17.9°C | 59.9% | 0hPa | 0V | 00:00:00 | 00:00:00 | 00:00:00 | |
| LZ3DJ-16 | 2026-09-01 11:34:09 | 42.65035 | 23.38665 | 181° | 4km/h | 1763m | 5.4m/s | 18.9°C | 57.8% | 0hPa | 0V | 00:00:00 | 00:00:00 | 00:00:00 | |
| LZ3DJ-16 | 2026-09-01 11:33:48 | 42.65040 | 23.38654 | 348° | 5km/h | 1650m | 5.4m/s | 20.0°C | 54.4% | 0hPa | 0V | 00:00:00 | 00:00:00 | 00:00:00 | |
| LZ3DJ-16 | 2026-09-01 11:33:28 | 42.65030 | 23.38654 | 209° | 5km/h | 1533m | 4.3m/s | 20.5°C | 55.2% | 0hPa | 0V | 00:00:00 | 00:00:00 | 00:00:00 | |
| LZ3DJ-16 | 2026-09-01 11:33:08 | 42.65051 | 23.38656 | 225° | 15km/h | 1433m | 3.1m/s | 21.3°C | 53.1% | 0hPa | 0V | 00:00:00 | 00:00:00 | 00:00:00 | |
| LZ3DJ-16 | 2026-09-01 11:32:48 | 42.65099 | 23.38627 | 151° | 11km/h | 1332m | 4.3m/s | 22.4°C | 50.6% | 0hPa | 0V | 00:00:00 | 00:00:00 | 00:00:00 | |
| LZ3DJ-16 | 2026-09-01 11:32:27 | 42.65147 | 23.38608 | 133° | 11km/h | 1220m | 6.5m/s | 23.4°C | 48.0% | 0hPa | 0V | 00:00:00 | 00:00:00 | 00:00:00 | |
| LZ3DJ-16 | 2026-09-01 11:32:06 | 42.65188 | 23.38583 | 83° | 9km/h | 1130m | 4.5m/s | 24.2°C | 46.1% | 0hPa | 0V | 00:00:00 | 00:00:00 | 00:00:00 | |
| LZ3DJ-16 | 2026-09-01 11:31:46 | 42.65230 | 23.38556 | 172° | 9km/h | 1033m | 4.6m/s | 0°C | 0% | 0hPa | 0V | 00:00:00 | 00:00:00 | 00:00:00 | |
| LZ3DJ-16 | 2026-09-01 11:31:25 | 42.65277 | 23.38524 | 99° | 15km/h | 931m | 6.9m/s | 0°C | 0% | 0hPa | 0V | 00:00:00 | 00:00:00 | 00:00:00 | |
| LZ3DJ-16 | 2026-09-01 11:31:04 | 42.65327 | 23.38442 | 207° | 7km/h | 816m | 4.9m/s | 0°C | 0% | 0hPa | 0V | 00:00:00 | 00:00:00 | 00:00:00 | |
| LZ3DJ-16 | 2026-09-01 11:30:44 | 42.65363 | 23.38376 | 73° | 26km/h | 725m | 3.8m/s | 0°C | 0% | 0hPa | 0V | 00:00:00 | 00:00:00 | 00:00:00 |